createdAt,value
2017-12-20T00:02:41.091Z," 6.39"
2017-12-20T00:07:37.688Z," 6.41"
2017-12-20T00:12:33.228Z," 6.30"
2017-12-20T00:17:28.960Z," 6.28"
2017-12-20T00:22:25.667Z," 6.30"
2017-12-20T00:27:21.045Z," 6.27"
2017-12-20T00:32:16.452Z," 6.35"
2017-12-20T00:37:12.329Z," 6.33"
2017-12-20T00:42:07.951Z," 6.20"
2017-12-20T00:47:03.782Z," 6.26"
2017-12-20T00:51:59.573Z," 6.22"
2017-12-20T00:56:55.559Z," 6.33"
2017-12-20T01:01:52.309Z," 6.33"
2017-12-20T01:06:49.554Z," 6.22"
2017-12-20T01:11:45.004Z," 6.31"
2017-12-20T01:16:40.829Z," 6.33"
2017-12-20T01:21:36.837Z," 6.20"
2017-12-20T01:26:32.467Z," 6.30"
2017-12-20T01:31:30.194Z," 6.31"
2017-12-20T01:36:25.951Z," 6.24"
2017-12-20T01:41:21.596Z," 6.31"
2017-12-20T01:46:17.618Z," 6.28"
2017-12-20T01:51:13.248Z," 6.31"
2017-12-20T01:56:10.007Z," 6.22"
2017-12-20T02:01:05.312Z," 6.30"
2017-12-20T02:06:00.961Z," 6.22"
2017-12-20T02:10:56.580Z," 6.33"
2017-12-20T02:15:53.293Z," 6.33"
2017-12-20T02:20:49.836Z," 6.33"
2017-12-20T02:25:46.917Z," 6.22"
2017-12-20T02:30:42.184Z," 6.28"
2017-12-20T02:35:38.937Z," 6.22"
2017-12-20T02:40:34.321Z," 6.30"
2017-12-20T02:45:29.996Z," 6.30"
2017-12-20T02:50:26.934Z," 6.27"
2017-12-20T02:55:21.928Z," 6.30"
2017-12-20T03:00:17.465Z," 6.35"
2017-12-20T03:05:13.229Z," 6.28"
2017-12-20T03:10:09.485Z," 6.22"
2017-12-20T03:15:05.595Z," 6.31"
2017-12-20T03:20:01.399Z," 6.28"
2017-12-20T03:24:57.186Z," 6.31"
2017-12-20T03:29:52.984Z," 6.28"
2017-12-20T03:34:48.915Z," 6.16"
2017-12-20T03:39:44.736Z," 6.35"
2017-12-20T03:44:40.432Z," 6.33"
2017-12-20T03:49:36.782Z," 6.35"
2017-12-20T03:54:32.207Z," 6.41"
2017-12-20T03:59:27.896Z," 6.36"
2017-12-20T04:04:24.608Z," 6.35"
2017-12-20T04:09:20.982Z," 6.39"
2017-12-20T04:14:17.560Z," 6.42"
2017-12-20T04:19:12.894Z," 6.35"
2017-12-20T04:24:09.684Z," 6.38"
2017-12-20T04:29:05.098Z," 6.31"
2017-12-20T04:34:01.746Z," 6.38"
2017-12-20T04:38:57.146Z," 6.42"
2017-12-20T04:43:53.796Z," 6.31"
2017-12-20T04:48:50.367Z," 6.26"
2017-12-20T04:53:45.797Z," 6.30"
2017-12-20T04:58:41.634Z," 6.33"
2017-12-20T05:03:37.411Z," 6.31"
2017-12-20T05:08:33.990Z," 6.31"
2017-12-20T05:13:29.442Z," 6.38"
2017-12-20T05:18:25.275Z," 6.35"
2017-12-20T05:23:21.020Z," 6.36"
2017-12-20T05:28:16.994Z," 6.39"
2017-12-20T05:33:12.449Z," 6.33"
2017-12-20T05:38:08.620Z," 6.30"
2017-12-20T05:43:05.510Z," 6.31"
2017-12-20T05:48:00.684Z," 6.39"
2017-12-20T05:52:56.741Z," 6.36"
2017-12-20T05:57:52.446Z," 6.31"
2017-12-20T06:02:48.388Z," 6.39"
2017-12-20T06:07:44.425Z," 6.35"
2017-12-20T06:12:40.182Z," 6.39"
2017-12-20T06:17:35.971Z," 6.41"
2017-12-20T06:22:31.690Z," 6.46"
2017-12-20T06:27:27.628Z," 6.44"
2017-12-20T06:32:23.458Z," 6.52"
2017-12-20T06:37:20.121Z," 6.45"
2017-12-20T06:42:15.571Z," 6.57"
2017-12-20T06:47:11.293Z," 6.56"
2017-12-20T06:52:07.123Z," 6.60"
2017-12-20T06:57:04.830Z," 6.56"
2017-12-20T07:02:01.253Z," 6.57"
2017-12-20T07:06:56.695Z," 6.49"
2017-12-20T07:11:52.375Z," 6.51"
2017-12-20T07:16:48.235Z," 6.59"
2017-12-20T07:21:43.890Z," 6.59"
2017-12-20T07:26:39.655Z," 6.56"
2017-12-20T07:31:35.692Z," 6.54"
2017-12-20T07:36:31.502Z," 6.64"
2017-12-20T07:41:27.433Z," 6.59"
2017-12-20T07:46:22.812Z," 6.69"
2017-12-20T07:51:18.520Z," 6.60"
2017-12-20T07:56:15.452Z," 6.62"
2017-12-20T08:01:10.685Z," 6.63"
2017-12-20T08:06:06.476Z," 6.59"
2017-12-20T08:11:02.336Z," 6.60"
2017-12-20T08:15:59.082Z," 6.64"
2017-12-20T08:20:54.298Z," 6.64"
2017-12-20T08:25:49.922Z," 6.67"
2017-12-20T08:30:45.880Z," 6.72"
2017-12-20T08:35:42.582Z," 6.85"
2017-12-20T08:40:39.365Z," 6.84"
2017-12-20T08:45:34.794Z," 6.79"
2017-12-20T08:50:31.590Z," 6.85"
2017-12-20T08:55:27.249Z," 6.85"
2017-12-20T09:00:22.996Z," 7.02"
2017-12-20T09:05:18.891Z," 6.99"
2017-12-20T09:10:14.795Z," 7.03"
2017-12-20T09:15:10.524Z," 6.99"
2017-12-20T09:20:06.924Z," 7.10"
2017-12-20T09:25:02.861Z," 7.11"
2017-12-20T09:29:58.743Z," 7.07"
2017-12-20T09:34:55.371Z," 7.14"
2017-12-20T09:39:52.222Z," 7.10"
2017-12-20T09:44:47.360Z," 7.06"
2017-12-20T09:49:44.066Z," 7.17"
2017-12-20T09:54:39.867Z," 7.15"
2017-12-20T09:59:35.969Z," 7.24"
2017-12-20T10:04:32.924Z," 7.21"
2017-12-20T10:09:29.653Z," 7.38"
2017-12-20T10:14:25.119Z," 7.29"
2017-12-20T10:19:20.948Z," 7.24"
2017-12-20T10:24:16.894Z," 7.28"
2017-12-20T10:29:12.583Z," 7.36"
2017-12-20T10:34:10.388Z," 7.45"
2017-12-20T10:39:05.586Z," 7.50"
2017-12-20T10:44:01.408Z," 7.50"
2017-12-20T10:48:57.368Z," 7.38"
2017-12-20T10:53:54.122Z," 7.54"
2017-12-20T10:58:49.697Z," 7.47"
2017-12-20T11:03:45.517Z," 7.53"
2017-12-20T11:08:41.346Z," 7.61"
2017-12-20T11:13:37.350Z," 7.66"
2017-12-20T11:18:34.236Z," 7.70"
2017-12-20T11:23:30.586Z," 7.70"
2017-12-20T11:28:26.143Z," 7.87"
2017-12-20T11:33:21.986Z," 7.70"
2017-12-20T11:38:17.679Z," 7.80"
2017-12-20T11:43:13.522Z," 7.87"
2017-12-20T11:48:10.339Z," 7.90"
2017-12-20T11:53:07.175Z," 7.95"
2017-12-20T11:58:03.988Z," 7.90"
2017-12-20T12:02:59.376Z," 7.93"
2017-12-20T12:07:54.657Z," 7.85"
2017-12-20T12:12:50.374Z," 8.05"
2017-12-20T12:17:46.146Z," 7.90"
2017-12-20T12:22:41.874Z," 7.85"
2017-12-20T12:27:37.537Z," 7.83"
2017-12-20T12:32:34.179Z," 7.90"
2017-12-20T12:37:29.599Z," 7.88"
2017-12-20T12:42:25.213Z," 7.80"
2017-12-20T12:47:20.738Z," 7.85"
2017-12-20T12:52:16.497Z," 7.82"
2017-12-20T12:57:13.073Z," 7.82"
2017-12-20T13:02:09.553Z," 7.73"
2017-12-20T13:07:05.054Z," 7.69"
2017-12-20T13:12:00.967Z," 7.80"
2017-12-20T13:16:56.678Z," 7.77"
2017-12-20T13:21:53.305Z," 7.80"
2017-12-20T13:26:48.804Z," 7.79"
2017-12-20T13:31:44.527Z," 7.93"
2017-12-20T13:36:40.594Z," 7.85"
2017-12-20T13:41:37.482Z," 7.94"
2017-12-20T13:46:33.649Z," 7.80"
2017-12-20T13:51:29.303Z," 7.93"
2017-12-20T13:56:24.664Z," 7.85"
2017-12-20T14:01:20.401Z," 7.98"
2017-12-20T14:06:16.224Z," 7.91"
2017-12-20T14:11:13.151Z," 7.97"
2017-12-20T14:16:08.742Z," 7.91"
2017-12-20T14:21:04.614Z," 7.87"
2017-12-20T14:26:01.429Z," 7.95"
2017-12-20T14:30:57.109Z," 7.88"
2017-12-20T14:35:54.250Z," 7.88"
2017-12-20T14:40:49.450Z," 7.85"
2017-12-20T14:45:46.067Z," 7.93"
2017-12-20T14:50:41.216Z," 7.94"
2017-12-20T14:55:36.690Z," 7.75"
2017-12-20T15:00:32.380Z," 7.80"
2017-12-20T15:05:27.906Z," 7.87"
2017-12-20T15:10:23.657Z," 7.85"
2017-12-20T15:15:20.847Z," 7.88"
2017-12-20T15:20:16.474Z," 7.95"
2017-12-20T15:25:12.302Z," 7.79"
2017-12-20T15:30:08.064Z," 7.77"
2017-12-20T15:35:03.749Z," 7.75"
2017-12-20T15:40:00.524Z," 7.83"
2017-12-20T15:44:55.677Z," 7.88"
2017-12-20T15:49:51.797Z," 7.73"
2017-12-20T15:54:47.505Z," 7.66"
2017-12-20T15:59:43.380Z," 7.83"
2017-12-20T16:04:40.183Z," 7.77"
2017-12-20T16:09:37.158Z," 7.80"
2017-12-20T16:14:32.950Z," 7.70"
2017-12-20T16:19:28.810Z," 7.72"
2017-12-20T16:24:25.868Z," 7.63"
2017-12-20T16:29:22.861Z," 7.75"
2017-12-20T16:34:18.348Z," 7.70"
2017-12-20T16:39:14.091Z," 7.69"
2017-12-20T16:44:09.847Z," 7.69"
2017-12-20T16:49:05.997Z," 7.67"
2017-12-20T16:54:02.815Z," 7.69"
2017-12-20T16:58:58.446Z," 7.66"
2017-12-20T17:03:55.644Z," 7.69"
2017-12-20T17:08:51.758Z," 7.75"
2017-12-20T17:13:47.493Z," 7.69"
2017-12-20T17:18:44.409Z," 7.72"
2017-12-20T17:23:39.838Z," 7.63"
2017-12-20T17:28:35.535Z," 7.60"
2017-12-20T17:33:32.010Z," 7.57"
2017-12-20T17:38:28.492Z," 7.54"
2017-12-20T17:43:24.967Z," 7.58"
2017-12-20T17:48:20.470Z," 7.58"
2017-12-20T17:53:16.096Z," 7.56"
2017-12-20T17:58:12.936Z," 7.58"
2017-12-20T18:03:08.371Z," 7.54"
2017-12-20T18:08:05.861Z," 7.58"
2017-12-20T18:13:01.220Z," 7.51"
2017-12-20T18:17:57.315Z," 7.57"
2017-12-20T18:22:54.091Z," 7.58"
2017-12-20T18:27:50.157Z," 7.53"
2017-12-20T18:32:45.850Z," 7.56"
2017-12-20T18:37:42.590Z," 7.58"
2017-12-20T18:42:38.029Z," 7.53"
2017-12-20T18:47:33.769Z," 7.58"
2017-12-20T18:52:30.682Z," 7.50"
2017-12-20T18:57:26.111Z," 7.57"
2017-12-20T19:02:21.992Z," 7.58"
2017-12-20T19:07:17.553Z," 7.56"
2017-12-20T19:12:13.816Z," 7.60"
2017-12-20T19:17:09.974Z," 7.53"
2017-12-20T19:22:05.552Z," 7.58"
2017-12-20T19:27:01.232Z," 7.56"
2017-12-20T19:31:57.182Z," 7.56"
2017-12-20T19:36:53.387Z," 7.58"
2017-12-20T19:41:49.347Z," 7.56"
2017-12-20T19:46:45.088Z," 7.57"
2017-12-20T19:51:41.488Z," 7.61"
2017-12-20T19:56:38.195Z," 7.66"
2017-12-20T20:01:33.557Z," 7.61"
2017-12-20T20:06:29.730Z," 7.54"
2017-12-20T20:11:26.130Z," 7.57"
2017-12-20T20:16:21.563Z," 7.54"
2017-12-20T20:21:17.349Z," 7.58"
2017-12-20T20:26:13.191Z," 7.60"
2017-12-20T20:31:09.381Z," 7.63"
2017-12-20T20:36:04.940Z," 7.56"
2017-12-20T20:41:01.869Z," 7.66"
2017-12-20T20:45:57.559Z," 7.60"
2017-12-20T20:50:53.414Z," 7.63"
2017-12-20T20:55:49.171Z," 7.67"
2017-12-20T21:00:45.459Z," 7.72"
2017-12-20T21:05:41.512Z," 7.69"
2017-12-20T21:10:37.130Z," 7.72"
2017-12-20T21:15:34.280Z," 7.67"
2017-12-20T21:20:30.149Z," 7.66"
2017-12-20T21:25:25.916Z," 7.73"
2017-12-20T21:30:22.027Z," 7.63"
2017-12-20T21:35:17.768Z," 7.69"
2017-12-20T21:40:13.865Z," 7.75"
2017-12-20T21:45:09.667Z," 7.73"
2017-12-20T21:50:06.035Z," 7.77"
2017-12-20T21:55:01.771Z," 7.70"
2017-12-20T21:59:57.404Z," 7.66"
2017-12-20T22:04:53.192Z," 7.79"
2017-12-20T22:09:49.714Z," 7.73"
2017-12-20T22:14:45.321Z," 7.79"
2017-12-20T22:19:41.243Z," 7.72"
2017-12-20T22:24:36.823Z," 7.75"
2017-12-20T22:29:32.441Z," 7.83"
2017-12-20T22:34:29.247Z," 7.76"
2017-12-20T22:39:25.184Z," 7.83"
2017-12-20T22:44:20.869Z," 7.83"
2017-12-20T22:49:16.645Z," 7.79"
2017-12-20T22:54:12.315Z," 7.85"
2017-12-20T22:59:08.082Z," 7.90"
2017-12-20T23:04:04.115Z," 7.94"
2017-12-20T23:09:00.189Z," 7.87"
2017-12-20T23:13:56.017Z," 7.94"
2017-12-20T23:18:51.872Z," 7.87"
2017-12-20T23:23:48.330Z," 7.88"
2017-12-20T23:28:43.946Z," 7.88"
2017-12-20T23:33:39.567Z," 7.97"
2017-12-20T23:38:35.241Z," 8.03"
2017-12-20T23:43:30.831Z," 7.90"
2017-12-20T23:48:27.811Z," 8.00"
2017-12-20T23:53:23.043Z," 7.98"
2017-12-20T23:58:18.978Z," 8.01"
